sensor_id;sensor_type;location;lat;lon;timestamp;P1;durP1;ratioP1;P2;durP2;ratioP2
23658;SDS011;12006;42.666;23.326;2023-12-20T00:00:51;18.43;;;13.73;;
23658;SDS011;12006;42.666;23.326;2023-12-20T00:03:16;19.13;;;13.33;;
23658;SDS011;12006;42.666;23.326;2023-12-20T00:05:42;27.60;;;14.23;;
23658;SDS011;12006;42.666;23.326;2023-12-20T00:08:07;24.43;;;14.33;;
23658;SDS011;12006;42.666;23.326;2023-12-20T00:10:32;26.37;;;16.07;;
23658;SDS011;12006;42.666;23.326;2023-12-20T00:12:57;20.97;;;13.07;;
23658;SDS011;12006;42.666;23.326;2023-12-20T00:15:23;19.40;;;12.90;;
23658;SDS011;12006;42.666;23.326;2023-12-20T00:17:48;19.67;;;13.17;;
23658;SDS011;12006;42.666;23.326;2023-12-20T00:20:13;17.93;;;13.23;;
23658;SDS011;12006;42.666;23.326;2023-12-20T00:22:38;24.83;;;14.27;;
23658;SDS011;12006;42.666;23.326;2023-12-20T00:25:04;21.17;;;13.83;;
23658;SDS011;12006;42.666;23.326;2023-12-20T00:27:29;24.53;;;15.73;;
23658;SDS011;12006;42.666;23.326;2023-12-20T00:29:54;24.57;;;14.53;;
23658;SDS011;12006;42.666;23.326;2023-12-20T00:32:20;24.60;;;14.67;;
23658;SDS011;12006;42.666;23.326;2023-12-20T00:34:45;24.57;;;16.27;;
23658;SDS011;12006;42.666;23.326;2023-12-20T00:37:10;24.60;;;16.33;;
23658;SDS011;12006;42.666;23.326;2023-12-20T00:39:35;23.27;;;16.50;;
23658;SDS011;12006;42.666;23.326;2023-12-20T00:42:00;21.60;;;13.67;;
23658;SDS011;12006;42.666;23.326;2023-12-20T00:44:26;24.43;;;14.40;;
23658;SDS011;12006;42.666;23.326;2023-12-20T00:46:51;25.30;;;16.30;;
23658;SDS011;12006;42.666;23.326;2023-12-20T00:49:16;26.67;;;16.77;;
23658;SDS011;12006;42.666;23.326;2023-12-20T00:51:41;22.77;;;14.43;;
23658;SDS011;12006;42.666;23.326;2023-12-20T00:54:07;23.03;;;16.47;;
23658;SDS011;12006;42.666;23.326;2023-12-20T00:56:32;25.80;;;14.90;;
23658;SDS011;12006;42.666;23.326;2023-12-20T00:58:57;22.90;;;16.60;;
23658;SDS011;12006;42.666;23.326;2023-12-20T01:01:22;19.50;;;14.90;;
23658;SDS011;12006;42.666;23.326;2023-12-20T01:03:47;24.70;;;15.83;;
23658;SDS011;12006;42.666;23.326;2023-12-20T01:06:13;21.73;;;15.33;;
23658;SDS011;12006;42.666;23.326;2023-12-20T01:08:38;24.17;;;15.40;;
23658;SDS011;12006;42.666;23.326;2023-12-20T01:11:04;28.40;;;17.97;;
23658;SDS011;12006;42.666;23.326;2023-12-20T01:13:30;25.70;;;13.57;;
23658;SDS011;12006;42.666;23.326;2023-12-20T01:15:55;23.00;;;15.83;;
23658;SDS011;12006;42.666;23.326;2023-12-20T01:18:20;23.60;;;14.90;;
23658;SDS011;12006;42.666;23.326;2023-12-20T01:20:46;24.93;;;14.77;;
23658;SDS011;12006;42.666;23.326;2023-12-20T01:23:11;26.77;;;14.30;;
23658;SDS011;12006;42.666;23.326;2023-12-20T01:25:36;19.93;;;13.83;;
23658;SDS011;12006;42.666;23.326;2023-12-20T01:28:01;22.40;;;14.97;;
23658;SDS011;12006;42.666;23.326;2023-12-20T01:30:28;23.77;;;15.70;;
23658;SDS011;12006;42.666;23.326;2023-12-20T01:32:53;24.23;;;15.80;;
23658;SDS011;12006;42.666;23.326;2023-12-20T01:35:19;26.17;;;17.20;;
23658;SDS011;12006;42.666;23.326;2023-12-20T01:37:44;28.40;;;17.57;;
23658;SDS011;12006;42.666;23.326;2023-12-20T01:40:09;28.60;;;16.90;;
23658;SDS011;12006;42.666;23.326;2023-12-20T01:42:35;29.30;;;16.03;;
23658;SDS011;12006;42.666;23.326;2023-12-20T01:45:00;25.43;;;16.53;;
23658;SDS011;12006;42.666;23.326;2023-12-20T01:47:25;31.73;;;18.40;;
23658;SDS011;12006;42.666;23.326;2023-12-20T01:49:52;25.10;;;16.77;;
23658;SDS011;12006;42.666;23.326;2023-12-20T01:52:17;30.40;;;17.77;;
23658;SDS011;12006;42.666;23.326;2023-12-20T01:54:42;23.90;;;15.67;;
23658;SDS011;12006;42.666;23.326;2023-12-20T01:57:08;28.20;;;18.87;;
23658;SDS011;12006;42.666;23.326;2023-12-20T01:59:33;27.07;;;16.87;;
23658;SDS011;12006;42.666;23.326;2023-12-20T02:01:59;26.20;;;15.97;;
23658;SDS011;12006;42.666;23.326;2023-12-20T02:04:24;27.93;;;15.03;;
23658;SDS011;12006;42.666;23.326;2023-12-20T02:06:52;22.30;;;14.97;;
23658;SDS011;12006;42.666;23.326;2023-12-20T02:09:17;23.73;;;16.73;;
23658;SDS011;12006;42.666;23.326;2023-12-20T02:11:43;20.60;;;14.27;;
23658;SDS011;12006;42.666;23.326;2023-12-20T02:14:08;24.63;;;16.47;;
23658;SDS011;12006;42.666;23.326;2023-12-20T02:16:33;39.57;;;16.80;;
23658;SDS011;12006;42.666;23.326;2023-12-20T02:18:59;31.20;;;17.50;;
23658;SDS011;12006;42.666;23.326;2023-12-20T02:21:25;25.63;;;15.93;;
23658;SDS011;12006;42.666;23.326;2023-12-20T02:23:50;25.10;;;13.77;;
23658;SDS011;12006;42.666;23.326;2023-12-20T02:26:15;24.13;;;16.47;;
23658;SDS011;12006;42.666;23.326;2023-12-20T02:28:41;20.83;;;15.50;;
23658;SDS011;12006;42.666;23.326;2023-12-20T02:31:06;28.10;;;15.93;;
23658;SDS011;12006;42.666;23.326;2023-12-20T02:33:31;22.83;;;15.80;;
23658;SDS011;12006;42.666;23.326;2023-12-20T02:35:56;23.23;;;16.10;;
23658;SDS011;12006;42.666;23.326;2023-12-20T02:38:22;26.53;;;16.13;;
23658;SDS011;12006;42.666;23.326;2023-12-20T02:40:47;22.33;;;15.50;;
23658;SDS011;12006;42.666;23.326;2023-12-20T02:43:12;24.20;;;13.03;;
23658;SDS011;12006;42.666;23.326;2023-12-20T02:45:37;20.83;;;15.20;;
23658;SDS011;12006;42.666;23.326;2023-12-20T02:48:03;30.30;;;16.20;;
23658;SDS011;12006;42.666;23.326;2023-12-20T02:50:28;23.63;;;15.50;;
23658;SDS011;12006;42.666;23.326;2023-12-20T02:52:53;27.70;;;16.80;;
23658;SDS011;12006;42.666;23.326;2023-12-20T02:55:18;21.23;;;15.13;;
23658;SDS011;12006;42.666;23.326;2023-12-20T02:57:44;20.77;;;15.93;;
23658;SDS011;12006;42.666;23.326;2023-12-20T03:00:09;25.70;;;15.23;;
23658;SDS011;12006;42.666;23.326;2023-12-20T03:02:35;25.13;;;16.37;;
23658;SDS011;12006;42.666;23.326;2023-12-20T03:05:01;24.23;;;16.00;;
23658;SDS011;12006;42.666;23.326;2023-12-20T03:07:26;26.40;;;15.70;;
23658;SDS011;12006;42.666;23.326;2023-12-20T03:09:51;25.87;;;16.33;;
23658;SDS011;12006;42.666;23.326;2023-12-20T03:12:17;18.93;;;14.80;;
23658;SDS011;12006;42.666;23.326;2023-12-20T03:14:43;21.43;;;15.03;;
23658;SDS011;12006;42.666;23.326;2023-12-20T03:17:08;25.00;;;16.57;;
23658;SDS011;12006;42.666;23.326;2023-12-20T03:19:33;22.57;;;14.57;;
23658;SDS011;12006;42.666;23.326;2023-12-20T03:21:58;25.80;;;15.03;;
23658;SDS011;12006;42.666;23.326;2023-12-20T03:24:25;19.93;;;14.77;;
23658;SDS011;12006;42.666;23.326;2023-12-20T03:26:51;21.20;;;14.57;;
23658;SDS011;12006;42.666;23.326;2023-12-20T03:29:16;20.17;;;14.80;;
23658;SDS011;12006;42.666;23.326;2023-12-20T03:31:41;22.50;;;16.13;;
23658;SDS011;12006;42.666;23.326;2023-12-20T03:34:06;22.87;;;13.63;;
23658;SDS011;12006;42.666;23.326;2023-12-20T03:36:32;25.27;;;14.80;;
23658;SDS011;12006;42.666;23.326;2023-12-20T03:38:57;18.93;;;14.13;;
23658;SDS011;12006;42.666;23.326;2023-12-20T03:41:22;34.43;;;17.10;;
23658;SDS011;12006;42.666;23.326;2023-12-20T03:43:47;20.53;;;15.37;;
23658;SDS011;12006;42.666;23.326;2023-12-20T03:46:12;29.23;;;18.27;;
23658;SDS011;12006;42.666;23.326;2023-12-20T03:48:38;23.37;;;15.17;;
23658;SDS011;12006;42.666;23.326;2023-12-20T03:51:03;30.87;;;20.13;;
23658;SDS011;12006;42.666;23.326;2023-12-20T03:53:28;27.07;;;18.23;;
23658;SDS011;12006;42.666;23.326;2023-12-20T03:55:53;42.47;;;22.53;;
23658;SDS011;12006;42.666;23.326;2023-12-20T03:58:19;31.57;;;21.70;;
23658;SDS011;12006;42.666;23.326;2023-12-20T04:00:44;35.13;;;20.93;;
23658;SDS011;12006;42.666;23.326;2023-12-20T04:03:09;36.03;;;20.40;;
23658;SDS011;12006;42.666;23.326;2023-12-20T04:05:37;35.97;;;22.47;;
23658;SDS011;12006;42.666;23.326;2023-12-20T04:08:02;40.07;;;22.33;;
23658;SDS011;12006;42.666;23.326;2023-12-20T04:10:29;33.70;;;22.73;;
23658;SDS011;12006;42.666;23.326;2023-12-20T04:12:54;38.73;;;25.77;;
23658;SDS011;12006;42.666;23.326;2023-12-20T04:15:20;35.10;;;23.77;;
23658;SDS011;12006;42.666;23.326;2023-12-20T04:17:45;42.67;;;23.57;;
23658;SDS011;12006;42.666;23.326;2023-12-20T04:20:10;36.70;;;22.93;;
23658;SDS011;12006;42.666;23.326;2023-12-20T04:22:36;41.93;;;24.23;;
23658;SDS011;12006;42.666;23.326;2023-12-20T04:25:01;32.20;;;23.13;;
23658;SDS011;12006;42.666;23.326;2023-12-20T04:27:27;33.77;;;25.17;;
23658;SDS011;12006;42.666;23.326;2023-12-20T04:29:52;40.07;;;24.90;;
23658;SDS011;12006;42.666;23.326;2023-12-20T04:32:17;36.87;;;23.17;;
23658;SDS011;12006;42.666;23.326;2023-12-20T04:34:43;40.50;;;24.97;;
23658;SDS011;12006;42.666;23.326;2023-12-20T04:37:08;46.60;;;26.93;;
23658;SDS011;12006;42.666;23.326;2023-12-20T04:39:33;41.23;;;22.53;;
23658;SDS011;12006;42.666;23.326;2023-12-20T04:41:58;40.07;;;25.20;;
23658;SDS011;12006;42.666;23.326;2023-12-20T04:44:23;42.60;;;24.03;;
23658;SDS011;12006;42.666;23.326;2023-12-20T04:46:49;44.57;;;25.67;;
23658;SDS011;12006;42.666;23.326;2023-12-20T04:49:14;38.83;;;25.03;;
23658;SDS011;12006;42.666;23.326;2023-12-20T04:51:39;45.93;;;25.63;;
23658;SDS011;12006;42.666;23.326;2023-12-20T04:54:04;38.80;;;28.17;;
23658;SDS011;12006;42.666;23.326;2023-12-20T04:56:29;45.63;;;27.00;;
23658;SDS011;12006;42.666;23.326;2023-12-20T04:58:55;48.03;;;27.20;;
23658;SDS011;12006;42.666;23.326;2023-12-20T05:01:20;46.23;;;27.83;;
23658;SDS011;12006;42.666;23.326;2023-12-20T05:03:46;41.33;;;28.47;;
23658;SDS011;12006;42.666;23.326;2023-12-20T05:06:11;39.60;;;27.57;;
23658;SDS011;12006;42.666;23.326;2023-12-20T05:08:37;51.40;;;31.43;;
23658;SDS011;12006;42.666;23.326;2023-12-20T05:11:02;40.80;;;28.53;;
23658;SDS011;12006;42.666;23.326;2023-12-20T05:13:27;43.27;;;26.20;;
23658;SDS011;12006;42.666;23.326;2023-12-20T05:15:53;42.63;;;29.27;;
23658;SDS011;12006;42.666;23.326;2023-12-20T05:18:18;50.60;;;29.17;;
23658;SDS011;12006;42.666;23.326;2023-12-20T05:20:43;42.53;;;27.63;;
23658;SDS011;12006;42.666;23.326;2023-12-20T05:23:08;41.97;;;27.20;;
23658;SDS011;12006;42.666;23.326;2023-12-20T05:25:34;39.13;;;25.80;;
23658;SDS011;12006;42.666;23.326;2023-12-20T05:27:59;42.27;;;26.23;;
23658;SDS011;12006;42.666;23.326;2023-12-20T05:30:24;40.70;;;26.70;;
23658;SDS011;12006;42.666;23.326;2023-12-20T05:32:49;39.83;;;26.03;;
23658;SDS011;12006;42.666;23.326;2023-12-20T05:35:15;37.33;;;25.30;;
23658;SDS011;12006;42.666;23.326;2023-12-20T05:37:40;43.20;;;26.13;;
23658;SDS011;12006;42.666;23.326;2023-12-20T05:40:06;43.30;;;29.17;;
23658;SDS011;12006;42.666;23.326;2023-12-20T05:42:31;41.03;;;26.50;;
23658;SDS011;12006;42.666;23.326;2023-12-20T05:44:56;46.57;;;29.30;;
23658;SDS011;12006;42.666;23.326;2023-12-20T05:47:21;38.10;;;26.03;;
23658;SDS011;12006;42.666;23.326;2023-12-20T05:49:47;38.20;;;24.63;;
23658;SDS011;12006;42.666;23.326;2023-12-20T05:52:12;40.07;;;27.07;;
23658;SDS011;12006;42.666;23.326;2023-12-20T05:54:37;40.23;;;26.77;;
23658;SDS011;12006;42.666;23.326;2023-12-20T05:57:02;45.07;;;27.30;;
23658;SDS011;12006;42.666;23.326;2023-12-20T05:59:28;39.43;;;26.07;;
23658;SDS011;12006;42.666;23.326;2023-12-20T06:01:53;42.77;;;25.03;;
23658;SDS011;12006;42.666;23.326;2023-12-20T06:04:18;42.10;;;24.07;;
23658;SDS011;12006;42.666;23.326;2023-12-20T06:06:44;49.77;;;26.67;;
23658;SDS011;12006;42.666;23.326;2023-12-20T06:09:09;40.33;;;24.00;;
23658;SDS011;12006;42.666;23.326;2023-12-20T06:11:34;40.37;;;28.60;;
23658;SDS011;12006;42.666;23.326;2023-12-20T06:14:00;45.10;;;23.97;;
23658;SDS011;12006;42.666;23.326;2023-12-20T06:16:25;51.87;;;26.63;;
23658;SDS011;12006;42.666;23.326;2023-12-20T06:18:50;39.60;;;23.60;;
23658;SDS011;12006;42.666;23.326;2023-12-20T06:21:15;35.30;;;25.13;;
23658;SDS011;12006;42.666;23.326;2023-12-20T06:23:41;35.73;;;23.13;;
23658;SDS011;12006;42.666;23.326;2023-12-20T06:26:06;46.50;;;26.60;;
23658;SDS011;12006;42.666;23.326;2023-12-20T06:28:31;45.17;;;26.07;;
23658;SDS011;12006;42.666;23.326;2023-12-20T06:30:56;41.20;;;25.33;;
23658;SDS011;12006;42.666;23.326;2023-12-20T06:33:22;46.00;;;23.63;;
23658;SDS011;12006;42.666;23.326;2023-12-20T06:35:48;43.37;;;26.87;;
23658;SDS011;12006;42.666;23.326;2023-12-20T06:38:13;42.50;;;24.80;;
23658;SDS011;12006;42.666;23.326;2023-12-20T06:40:38;43.10;;;27.13;;
23658;SDS011;12006;42.666;23.326;2023-12-20T06:43:03;45.63;;;27.93;;
23658;SDS011;12006;42.666;23.326;2023-12-20T06:45:29;40.03;;;25.97;;
23658;SDS011;12006;42.666;23.326;2023-12-20T06:47:54;44.67;;;25.57;;
23658;SDS011;12006;42.666;23.326;2023-12-20T06:50:19;51.53;;;28.20;;
23658;SDS011;12006;42.666;23.326;2023-12-20T06:52:45;46.13;;;26.10;;
23658;SDS011;12006;42.666;23.326;2023-12-20T06:55:10;50.87;;;28.17;;
23658;SDS011;12006;42.666;23.326;2023-12-20T06:57:35;40.47;;;25.00;;
23658;SDS011;12006;42.666;23.326;2023-12-20T07:00:02;45.47;;;25.27;;
23658;SDS011;12006;42.666;23.326;2023-12-20T07:02:27;45.27;;;27.50;;
23658;SDS011;12006;42.666;23.326;2023-12-20T07:04:55;44.50;;;25.17;;
23658;SDS011;12006;42.666;23.326;2023-12-20T07:07:20;47.27;;;27.60;;
23658;SDS011;12006;42.666;23.326;2023-12-20T07:09:46;40.37;;;24.20;;
23658;SDS011;12006;42.666;23.326;2023-12-20T07:12:11;46.43;;;28.27;;
23658;SDS011;12006;42.666;23.326;2023-12-20T07:14:36;44.07;;;26.17;;
23658;SDS011;12006;42.666;23.326;2023-12-20T07:17:01;40.43;;;25.57;;
23658;SDS011;12006;42.666;23.326;2023-12-20T07:19:27;49.07;;;27.30;;
23658;SDS011;12006;42.666;23.326;2023-12-20T07:21:53;41.23;;;23.57;;
23658;SDS011;12006;42.666;23.326;2023-12-20T07:24:18;49.37;;;27.60;;
23658;SDS011;12006;42.666;23.326;2023-12-20T07:26:43;39.07;;;25.97;;
23658;SDS011;12006;42.666;23.326;2023-12-20T07:29:08;42.53;;;27.47;;
23658;SDS011;12006;42.666;23.326;2023-12-20T07:31:34;47.67;;;26.90;;
23658;SDS011;12006;42.666;23.326;2023-12-20T07:33:59;45.40;;;27.57;;
23658;SDS011;12006;42.666;23.326;2023-12-20T07:36:25;47.10;;;28.67;;
23658;SDS011;12006;42.666;23.326;2023-12-20T07:38:50;46.57;;;26.60;;
23658;SDS011;12006;42.666;23.326;2023-12-20T07:41:15;53.77;;;28.27;;
23658;SDS011;12006;42.666;23.326;2023-12-20T07:43:41;49.67;;;27.73;;
23658;SDS011;12006;42.666;23.326;2023-12-20T07:46:06;45.90;;;28.77;;
23658;SDS011;12006;42.666;23.326;2023-12-20T07:48:32;55.40;;;30.10;;
23658;SDS011;12006;42.666;23.326;2023-12-20T07:50:57;55.53;;;29.47;;
23658;SDS011;12006;42.666;23.326;2023-12-20T07:53:22;53.43;;;31.07;;
23658;SDS011;12006;42.666;23.326;2023-12-20T07:55:48;46.73;;;29.13;;
23658;SDS011;12006;42.666;23.326;2023-12-20T07:58:13;59.53;;;31.03;;
23658;SDS011;12006;42.666;23.326;2023-12-20T08:00:38;47.17;;;30.53;;
23658;SDS011;12006;42.666;23.326;2023-12-20T08:03:04;49.00;;;30.10;;
23658;SDS011;12006;42.666;23.326;2023-12-20T08:05:29;49.87;;;29.97;;
23658;SDS011;12006;42.666;23.326;2023-12-20T08:07:54;75.27;;;43.33;;
23658;SDS011;12006;42.666;23.326;2023-12-20T08:10:19;65.80;;;37.63;;
23658;SDS011;12006;42.666;23.326;2023-12-20T08:12:45;51.50;;;31.83;;
23658;SDS011;12006;42.666;23.326;2023-12-20T08:15:10;51.77;;;30.67;;
23658;SDS011;12006;42.666;23.326;2023-12-20T08:17:35;43.90;;;29.47;;
23658;SDS011;12006;42.666;23.326;2023-12-20T08:20:01;47.17;;;29.77;;
23658;SDS011;12006;42.666;23.326;2023-12-20T08:22:26;48.50;;;29.47;;
23658;SDS011;12006;42.666;23.326;2023-12-20T08:24:51;47.70;;;29.60;;
23658;SDS011;12006;42.666;23.326;2023-12-20T08:27:16;47.53;;;29.80;;
23658;SDS011;12006;42.666;23.326;2023-12-20T08:29:43;49.53;;;30.37;;
23658;SDS011;12006;42.666;23.326;2023-12-20T08:32:08;46.33;;;29.37;;
23658;SDS011;12006;42.666;23.326;2023-12-20T08:34:34;46.63;;;29.47;;
23658;SDS011;12006;42.666;23.326;2023-12-20T08:36:59;41.43;;;28.13;;
23658;SDS011;12006;42.666;23.326;2023-12-20T08:39:25;45.93;;;26.57;;
23658;SDS011;12006;42.666;23.326;2023-12-20T08:41:50;39.77;;;26.60;;
23658;SDS011;12006;42.666;23.326;2023-12-20T08:44:15;39.67;;;26.57;;
23658;SDS011;12006;42.666;23.326;2023-12-20T08:46:40;39.93;;;25.83;;
23658;SDS011;12006;42.666;23.326;2023-12-20T08:49:06;37.97;;;25.47;;
23658;SDS011;12006;42.666;23.326;2023-12-20T08:51:32;42.10;;;27.70;;
23658;SDS011;12006;42.666;23.326;2023-12-20T08:53:58;50.53;;;31.83;;
23658;SDS011;12006;42.666;23.326;2023-12-20T08:56:23;48.37;;;30.37;;
23658;SDS011;12006;42.666;23.326;2023-12-20T08:58:49;52.67;;;30.70;;
23658;SDS011;12006;42.666;23.326;2023-12-20T09:01:14;55.63;;;31.17;;
23658;SDS011;12006;42.666;23.326;2023-12-20T09:03:39;52.00;;;28.83;;
23658;SDS011;12006;42.666;23.326;2023-12-20T09:06:05;51.33;;;30.17;;
23658;SDS011;12006;42.666;23.326;2023-12-20T09:08:30;51.30;;;29.23;;
23658;SDS011;12006;42.666;23.326;2023-12-20T09:10:56;47.47;;;31.30;;
23658;SDS011;12006;42.666;23.326;2023-12-20T09:13:21;45.77;;;28.47;;
23658;SDS011;12006;42.666;23.326;2023-12-20T09:15:47;47.03;;;29.07;;
23658;SDS011;12006;42.666;23.326;2023-12-20T09:18:12;42.73;;;26.13;;
23658;SDS011;12006;42.666;23.326;2023-12-20T09:20:37;44.80;;;29.43;;
23658;SDS011;12006;42.666;23.326;2023-12-20T09:23:03;47.93;;;31.10;;
23658;SDS011;12006;42.666;23.326;2023-12-20T09:25:28;46.97;;;30.07;;
23658;SDS011;12006;42.666;23.326;2023-12-20T09:27:54;42.80;;;25.17;;
23658;SDS011;12006;42.666;23.326;2023-12-20T09:30:20;47.63;;;29.10;;
23658;SDS011;12006;42.666;23.326;2023-12-20T09:32:45;44.63;;;27.47;;
23658;SDS011;12006;42.666;23.326;2023-12-20T09:35:10;34.03;;;23.87;;
23658;SDS011;12006;42.666;23.326;2023-12-20T09:37:36;42.17;;;25.53;;
23658;SDS011;12006;42.666;23.326;2023-12-20T09:40:01;32.43;;;23.77;;
23658;SDS011;12006;42.666;23.326;2023-12-20T09:42:37;35.97;;;21.63;;
23658;SDS011;12006;42.666;23.326;2023-12-20T09:45:05;33.83;;;21.27;;
23658;SDS011;12006;42.666;23.326;2023-12-20T09:47:32;33.33;;;19.67;;
23658;SDS011;12006;42.666;23.326;2023-12-20T09:49:57;30.07;;;21.17;;
23658;SDS011;12006;42.666;23.326;2023-12-20T09:52:23;40.10;;;22.40;;
23658;SDS011;12006;42.666;23.326;2023-12-20T09:54:49;32.90;;;22.40;;
23658;SDS011;12006;42.666;23.326;2023-12-20T09:57:14;36.57;;;22.97;;
23658;SDS011;12006;42.666;23.326;2023-12-20T09:59:40;39.27;;;23.07;;
23658;SDS011;12006;42.666;23.326;2023-12-20T10:02:05;39.27;;;22.37;;
23658;SDS011;12006;42.666;23.326;2023-12-20T10:04:35;37.40;;;22.93;;
23658;SDS011;12006;42.666;23.326;2023-12-20T10:07:03;38.97;;;25.30;;
23658;SDS011;12006;42.666;23.326;2023-12-20T10:09:29;38.77;;;22.67;;
23658;SDS011;12006;42.666;23.326;2023-12-20T10:11:56;38.60;;;21.27;;
23658;SDS011;12006;42.666;23.326;2023-12-20T10:14:22;31.53;;;21.70;;
23658;SDS011;12006;42.666;23.326;2023-12-20T10:16:50;37.00;;;22.67;;
23658;SDS011;12006;42.666;23.326;2023-12-20T10:19:19;37.10;;;24.70;;
23658;SDS011;12006;42.666;23.326;2023-12-20T10:21:44;41.60;;;23.97;;
23658;SDS011;12006;42.666;23.326;2023-12-20T10:24:10;36.13;;;23.43;;
23658;SDS011;12006;42.666;23.326;2023-12-20T10:26:41;39.47;;;24.80;;
23658;SDS011;12006;42.666;23.326;2023-12-20T10:29:06;43.73;;;26.73;;
23658;SDS011;12006;42.666;23.326;2023-12-20T10:31:32;35.67;;;24.03;;
23658;SDS011;12006;42.666;23.326;2023-12-20T10:33:58;46.67;;;27.83;;
23658;SDS011;12006;42.666;23.326;2023-12-20T10:36:28;46.10;;;26.87;;
23658;SDS011;12006;42.666;23.326;2023-12-20T10:38:53;48.47;;;25.73;;
23658;SDS011;12006;42.666;23.326;2023-12-20T10:41:20;42.13;;;25.87;;
23658;SDS011;12006;42.666;23.326;2023-12-20T10:43:48;46.70;;;26.23;;
23658;SDS011;12006;42.666;23.326;2023-12-20T10:46:14;44.40;;;26.23;;
23658;SDS011;12006;42.666;23.326;2023-12-20T10:48:39;36.83;;;25.33;;
23658;SDS011;12006;42.666;23.326;2023-12-20T10:51:05;43.87;;;26.73;;
23658;SDS011;12006;42.666;23.326;2023-12-20T10:53:30;50.33;;;30.37;;
23658;SDS011;12006;42.666;23.326;2023-12-20T10:55:55;45.77;;;25.90;;
23658;SDS011;12006;42.666;23.326;2023-12-20T10:58:22;39.73;;;26.37;;
23658;SDS011;12006;42.666;23.326;2023-12-20T11:00:48;42.43;;;24.47;;
23658;SDS011;12006;42.666;23.326;2023-12-20T11:03:15;48.10;;;27.37;;
23658;SDS011;12006;42.666;23.326;2023-12-20T11:05:44;51.03;;;27.93;;
23658;SDS011;12006;42.666;23.326;2023-12-20T11:08:25;50.07;;;27.37;;
23658;SDS011;12006;42.666;23.326;2023-12-20T11:10:55;47.93;;;27.73;;
23658;SDS011;12006;42.666;23.326;2023-12-20T11:13:27;46.87;;;26.03;;
23658;SDS011;12006;42.666;23.326;2023-12-20T11:15:54;52.90;;;28.43;;
23658;SDS011;12006;42.666;23.326;2023-12-20T11:18:19;46.97;;;24.97;;
23658;SDS011;12006;42.666;23.326;2023-12-20T11:20:44;50.70;;;25.20;;
23658;SDS011;12006;42.666;23.326;2023-12-20T11:23:10;40.53;;;26.33;;
23658;SDS011;12006;42.666;23.326;2023-12-20T11:25:48;48.67;;;28.17;;
23658;SDS011;12006;42.666;23.326;2023-12-20T11:28:14;47.03;;;25.83;;
23658;SDS011;12006;42.666;23.326;2023-12-20T11:30:40;40.60;;;24.43;;
23658;SDS011;12006;42.666;23.326;2023-12-20T11:33:07;47.03;;;24.90;;
23658;SDS011;12006;42.666;23.326;2023-12-20T11:35:33;46.53;;;26.63;;
23658;SDS011;12006;42.666;23.326;2023-12-20T11:37:59;42.77;;;26.33;;
23658;SDS011;12006;42.666;23.326;2023-12-20T11:40:25;45.23;;;26.57;;
23658;SDS011;12006;42.666;23.326;2023-12-20T11:42:51;45.97;;;27.30;;
23658;SDS011;12006;42.666;23.326;2023-12-20T11:45:18;47.73;;;24.63;;
23658;SDS011;12006;42.666;23.326;2023-12-20T11:47:46;51.03;;;27.47;;
23658;SDS011;12006;42.666;23.326;2023-12-20T11:50:12;49.67;;;26.93;;
23658;SDS011;12006;42.666;23.326;2023-12-20T11:52:37;50.70;;;29.03;;
23658;SDS011;12006;42.666;23.326;2023-12-20T11:55:03;45.37;;;27.73;;
23658;SDS011;12006;42.666;23.326;2023-12-20T11:57:29;48.43;;;28.53;;
23658;SDS011;12006;42.666;23.326;2023-12-20T11:59:54;42.10;;;24.77;;
23658;SDS011;12006;42.666;23.326;2023-12-20T12:02:19;49.37;;;27.07;;
23658;SDS011;12006;42.666;23.326;2023-12-20T12:04:44;43.63;;;24.87;;
23658;SDS011;12006;42.666;23.326;2023-12-20T12:07:10;48.27;;;25.67;;
23658;SDS011;12006;42.666;23.326;2023-12-20T12:09:35;46.93;;;24.20;;
23658;SDS011;12006;42.666;23.326;2023-12-20T12:12:00;38.80;;;23.33;;
23658;SDS011;12006;42.666;23.326;2023-12-20T12:14:25;39.87;;;24.87;;
23658;SDS011;12006;42.666;23.326;2023-12-20T12:16:51;41.33;;;24.83;;
23658;SDS011;12006;42.666;23.326;2023-12-20T12:19:24;38.53;;;24.33;;
23658;SDS011;12006;42.666;23.326;2023-12-20T12:22:11;44.20;;;25.03;;
23658;SDS011;12006;42.666;23.326;2023-12-20T12:24:38;43.77;;;24.97;;
23658;SDS011;12006;42.666;23.326;2023-12-20T12:27:05;42.87;;;25.07;;
23658;SDS011;12006;42.666;23.326;2023-12-20T12:29:31;44.67;;;25.40;;
23658;SDS011;12006;42.666;23.326;2023-12-20T12:31:56;40.30;;;22.97;;
23658;SDS011;12006;42.666;23.326;2023-12-20T12:34:21;41.07;;;23.30;;
23658;SDS011;12006;42.666;23.326;2023-12-20T12:36:46;46.73;;;27.37;;
23658;SDS011;12006;42.666;23.326;2023-12-20T12:39:13;40.37;;;25.40;;
23658;SDS011;12006;42.666;23.326;2023-12-20T12:41:40;46.60;;;26.00;;
23658;SDS011;12006;42.666;23.326;2023-12-20T12:44:05;44.90;;;26.27;;
23658;SDS011;12006;42.666;23.326;2023-12-20T12:46:31;38.23;;;24.53;;
23658;SDS011;12006;42.666;23.326;2023-12-20T12:48:57;47.00;;;25.27;;
23658;SDS011;12006;42.666;23.326;2023-12-20T12:51:23;45.17;;;24.57;;
23658;SDS011;12006;42.666;23.326;2023-12-20T12:53:48;46.20;;;26.30;;
23658;SDS011;12006;42.666;23.326;2023-12-20T12:56:13;55.60;;;29.93;;
23658;SDS011;12006;42.666;23.326;2023-12-20T12:58:39;46.87;;;26.50;;
23658;SDS011;12006;42.666;23.326;2023-12-20T13:01:04;49.40;;;27.90;;
23658;SDS011;12006;42.666;23.326;2023-12-20T13:03:30;48.53;;;28.67;;
23658;SDS011;12006;42.666;23.326;2023-12-20T13:05:55;56.13;;;28.53;;
23658;SDS011;12006;42.666;23.326;2023-12-20T13:08:20;53.67;;;28.57;;
23658;SDS011;12006;42.666;23.326;2023-12-20T13:10:45;53.37;;;29.70;;
23658;SDS011;12006;42.666;23.326;2023-12-20T13:13:11;51.47;;;29.00;;
23658;SDS011;12006;42.666;23.326;2023-12-20T13:15:36;50.13;;;27.63;;
23658;SDS011;12006;42.666;23.326;2023-12-20T13:18:01;52.63;;;27.77;;
23658;SDS011;12006;42.666;23.326;2023-12-20T13:20:27;47.40;;;26.70;;
23658;SDS011;12006;42.666;23.326;2023-12-20T13:22:52;50.17;;;28.37;;
23658;SDS011;12006;42.666;23.326;2023-12-20T13:25:17;54.50;;;28.37;;
23658;SDS011;12006;42.666;23.326;2023-12-20T13:27:43;50.93;;;27.00;;
23658;SDS011;12006;42.666;23.326;2023-12-20T13:30:08;53.00;;;28.10;;
23658;SDS011;12006;42.666;23.326;2023-12-20T13:32:34;47.57;;;27.37;;
23658;SDS011;12006;42.666;23.326;2023-12-20T13:34:59;49.03;;;28.43;;
23658;SDS011;12006;42.666;23.326;2023-12-20T13:37:24;46.87;;;26.73;;
23658;SDS011;12006;42.666;23.326;2023-12-20T13:39:49;53.03;;;27.57;;
23658;SDS011;12006;42.666;23.326;2023-12-20T13:42:15;44.23;;;24.87;;
23658;SDS011;12006;42.666;23.326;2023-12-20T13:44:40;49.93;;;30.40;;
23658;SDS011;12006;42.666;23.326;2023-12-20T13:47:05;50.97;;;29.03;;
23658;SDS011;12006;42.666;23.326;2023-12-20T13:49:31;53.17;;;27.03;;
23658;SDS011;12006;42.666;23.326;2023-12-20T13:51:56;55.70;;;29.00;;
23658;SDS011;12006;42.666;23.326;2023-12-20T13:54:22;49.77;;;26.50;;
23658;SDS011;12006;42.666;23.326;2023-12-20T13:56:48;46.40;;;27.80;;
23658;SDS011;12006;42.666;23.326;2023-12-20T13:59:13;48.07;;;27.70;;